Time;durP1;ratioP1;P1;durP2;ratioP2;P2;SDS_P1;SDS_P2;PMS_P1;PMS_P2;Temp;Humidity;BMP_temperature;BMP_pressure;BME280_temperature;BME280_humidity;BME280_pressure;Samples;Min_cycle;Max_cycle;Signal;HPM_P1;HPM_P2
2022/11/18 00:01:24;;;;;;;13.27;4.05;;;;;;;5.88;100.00;99515.97;5035040;28;20025;-84
2022/11/18 00:03:50;;;;;;;10.00;3.80;;;;;;;5.85;100.00;99517.00;5034949;28;20033;-84
2022/11/18 00:06:19;;;;;;;8.63;3.90;;;;;;;5.81;100.00;99510.44;5035074;28;20036;-83
2022/11/18 00:08:44;;;;;;;11.25;4.15;;;;;;;5.74;100.00;99507.44;5035264;28;20445;-84
2022/11/18 00:14:17;;;;;;;8.60;4.10;;;;;;;5.55;100.00;99489.06;5017200;28;20021;-84
2022/11/18 00:14:18;;;;;;;11.10;3.97;;;;;;;5.60;100.00;99504.94;5034870;28;20603;-84
2022/11/18 00:16:44;;;;;;;;;;;;;;;5.65;100.00;99520.84;5035322;28;20496;-84
2022/11/18 00:19:10;;;;;;;13.27;4.00;;;;;;;5.65;100.00;99523.41;5034727;28;19913;-84
2022/11/18 00:21:35;;;;;;;10.35;4.10;;;;;;;5.63;100.00;99522.69;5034926;28;20029;-84
2022/11/18 00:24:00;;;;;;;11.13;4.57;;;;;;;5.44;100.00;99504.28;5034755;28;20041;-83
2022/11/18 00:26:25;;;;;;;8.68;3.80;;;;;;;5.36;100.00;99499.63;5034551;28;20030;-84
2022/11/18 00:28:51;;;;;;;9.23;4.50;;;;;;;5.49;100.00;99522.72;5034687;28;20474;-84
2022/11/18 00:31:16;;;;;;;8.07;4.25;;;;;;;5.52;100.00;99542.19;5034663;28;20029;-80
2022/11/18 00:33:41;;;;;;;10.38;4.07;;;;;;;5.41;100.00;99528.34;5034201;28;20037;-83
2022/11/18 00:36:10;;;;;;;6.35;3.50;;;;;;;5.47;100.00;99535.63;5034389;28;20146;-83
2022/11/18 00:38:35;;;;;;;10.75;4.38;;;;;;;5.15;100.00;99503.53;5034578;28;20037;-83
2022/11/18 00:41:07;;;;;;;10.05;3.97;;;;;;;5.41;100.00;99551.38;5034419;28;20397;-84
2022/11/18 00:43:33;;;;;;;13.18;4.25;;;;;;;5.22;100.00;99519.34;5034183;28;20028;-84
2022/11/18 00:45:58;;;;;;;10.13;4.20;;;;;;;5.13;100.00;99497.69;5034134;28;20036;-83
2022/11/18 00:48:24;;;;;;;9.52;4.28;;;;;;;5.50;100.00;99554.25;5034215;28;20474;-84
2022/11/18 00:50:51;;;;;;;11.25;3.92;;;;;;;5.56;100.00;99564.13;5034248;28;20488;-83
2022/11/18 00:53:18;;;;;;;12.18;4.30;;;;;;;5.43;100.00;99529.06;5034259;28;20111;-84
2022/11/18 00:55:44;;;;;;;12.68;4.30;;;;;;;5.69;100.00;99557.31;5015617;28;20037;-82
2022/11/18 00:58:13;;;;;;;10.13;4.00;;;;;;;5.52;100.00;99526.84;5033819;28;20517;-83
2022/11/18 01:00:42;;;;;;;11.20;4.15;;;;;;;5.44;100.00;99507.66;5033906;28;20175;-84
2022/11/18 01:03:09;;;;;;;11.40;4.32;;;;;;;5.73;100.00;99556.22;5033893;28;20033;-83
2022/11/18 01:05:34;;;;;;;10.18;4.15;;;;;;;5.89;100.00;99571.41;5033910;28;20025;-83
2022/11/18 01:08:00;;;;;;;6.43;4.40;;;;;;;5.58;100.00;99522.13;5034088;28;20496;-83
2022/11/18 01:10:25;;;;;;;10.52;4.38;;;;;;;5.87;100.00;99556.16;5033772;28;20025;-83
2022/11/18 01:15:39;;;;;;;9.68;4.57;;;;;;;5.72;100.00;99521.28;5033835;28;20040;-83
2022/11/18 01:18:04;;;;;;;13.07;4.38;;;;;;;6.19;100.00;99594.28;5033921;28;20395;-83
2022/11/18 01:20:31;;;;;;;11.32;4.20;;;;;;;6.21;100.00;99592.47;5033697;28;20032;-83
2022/11/18 01:22:57;;;;;;;8.70;4.38;;;;;;;6.25;100.00;99596.47;5033550;28;20108;-84
2022/11/18 01:25:22;;;;;;;10.23;4.00;;;;;;;6.29;100.00;99597.91;5033246;28;20156;-82
2022/11/18 01:27:47;;;;;;;9.20;4.15;;;;;;;6.31;100.00;99603.78;5033656;28;20124;-83
2022/11/18 01:30:15;;;;;;;6.28;3.70;;;;;;;6.32;100.00;99603.66;5033784;28;20030;-84
2022/11/18 01:32:41;;;;;;;9.45;4.03;;;;;;;6.26;100.00;99596.38;5033579;28;20024;-84
2022/11/18 01:35:07;;;;;;;8.10;3.38;;;;;;;6.30;100.00;99610.66;5033519;28;20033;-83
2022/11/18 01:37:33;;;;;;;8.65;3.65;;;;;;;6.31;100.00;99614.03;5033373;28;20028;-82
2022/11/18 01:39:58;;;;;;;9.50;3.92;;;;;;;6.24;100.00;99607.66;5033103;28;20029;-83
2022/11/18 01:42:23;;;;;;;9.23;3.20;;;;;;;6.34;100.00;99626.63;5033302;28;20033;-84
2022/11/18 01:45:01;;;;;;;6.88;3.25;;;;;;;6.39;100.00;99626.31;5032661;28;20068;-84
2022/11/18 01:47:33;;;;;;;10.95;3.53;;;;;;;6.39;100.00;99627.19;5033258;28;20053;-83
2022/11/18 01:50:00;;;;;;;11.85;4.00;;;;;;;6.43;100.00;99620.91;5033214;28;20080;-82
2022/11/18 01:52:26;;;;;;;8.20;3.92;;;;;;;6.27;100.00;99599.75;5032914;28;20105;-84
2022/11/18 01:54:56;;;;;;;9.75;3.63;;;;;;;6.53;100.00;99623.72;5033313;28;20132;-83
2022/11/18 01:57:26;;;;;;;10.82;4.68;;;;;;;6.60;100.00;99635.22;5033379;28;20029;-84
2022/11/18 01:59:56;;;;;;;9.18;4.03;;;;;;;6.62;100.00;99635.94;5033442;28;20029;-84
2022/11/18 02:02:21;;;;;;;9.43;3.88;;;;;;;6.58;100.00;99630.16;5033014;28;20072;-84
2022/11/18 02:04:48;;;;;;;8.48;3.42;;;;;;;6.59;100.00;99629.25;5033042;28;20033;-83
2022/11/18 02:07:15;;;;;;;7.68;3.42;;;;;;;6.71;100.00;99642.19;5015093;28;20022;-83
2022/11/18 02:09:42;;;;;;;9.15;3.88;;;;;;;6.72;100.00;99641.28;5033349;28;20116;-84
2022/11/18 02:12:07;;;;;;;11.77;3.90;;;;;;;6.61;100.00;99622.28;5033310;28;20052;-83
2022/11/18 02:14:36;;;;;;;9.40;3.55;;;;;;;6.48;100.00;99600.91;5032965;28;20421;-83
2022/11/18 02:17:16;;;;;;;8.43;3.50;;;;;;;6.78;100.00;99651.94;5033025;28;20366;-84
2022/11/18 02:19:47;;;;;;;9.38;4.72;;;;;;;6.81;100.00;99654.31;5032945;28;20580;-82
2022/11/18 02:22:46;;;;;;;9.48;3.92;;;;;;;6.68;100.00;99632.13;5014808;28;20033;-84
2022/11/18 02:25:21;;;;;;;9.65;3.67;;;;;;;6.84;100.00;99654.09;5032997;28;20030;-83
2022/11/18 02:27:49;;;;;;;9.68;3.55;;;;;;;6.84;100.00;99663.56;5015454;28;20036;-82
2022/11/18 02:30:17;;;;;;;8.15;3.40;;;;;;;6.87;100.00;99663.34;5032711;28;20075;-83
2022/11/18 02:32:57;;;;;;;6.63;3.50;;;;;;;6.88;100.00;99659.84;5014634;28;20087;-84
2022/11/18 02:35:28;;;;;;;6.63;3.40;;;;;;;6.84;100.00;99659.25;5032653;28;20116;-83
2022/11/18 02:37:59;;;;;;;8.60;3.72;;;;;;;6.89;100.00;99664.09;5032575;28;20100;-83
2022/11/18 02:40:29;;;;;;;7.57;3.38;;;;;;;6.85;100.00;99665.19;5032736;28;20030;-83
2022/11/18 02:43:03;;;;;;;8.25;3.50;;;;;;;6.71;100.00;99629.38;5032767;28;20079;-83
2022/11/18 02:45:30;;;;;;;7.18;3.08;;;;;;;6.94;100.00;99672.28;5032569;28;20037;-83
2022/11/18 02:47:58;;;;;;;11.57;4.30;;;;;;;6.85;100.00;99665.19;5032404;28;20044;-83
2022/11/18 02:50:27;;;;;;;9.02;3.55;;;;;;;6.96;100.00;99673.00;5032592;28;20083;-84
2022/11/18 02:52:57;;;;;;;8.85;3.63;;;;;;;6.90;100.00;99673.44;5032425;28;20021;-84
2022/11/18 02:55:26;;;;;;;7.38;3.65;;;;;;;6.97;100.00;99674.63;5033358;28;20034;-83
2022/11/18 02:57:52;;;;;;;9.80;4.00;;;;;;;6.98;100.00;99675.47;5036505;28;20033;-82
2022/11/18 03:00:18;;;;;;;8.52;3.78;;;;;;;6.87;100.00;99661.59;5036533;28;20025;-84
2022/11/18 03:02:48;;;;;;;6.85;3.50;;;;;;;6.75;100.00;99644.44;5036414;28;20017;-84
2022/11/18 03:06:05;;;;;;;9.73;3.83;;;;;;;7.00;100.00;99683.91;5036191;28;20033;-84
2022/11/18 03:08:46;;;;;;;9.88;3.67;;;;;;;6.82;100.00;99655.97;4975502;28;20023;-82
2022/11/18 03:11:17;;;;;;;8.43;3.22;;;;;;;6.92;100.00;99676.69;4975259;28;20039;-82
2022/11/18 03:14:00;;;;;;;10.43;3.85;;;;;;;7.04;100.00;99700.72;4975426;28;20113;-83
2022/11/18 03:16:31;;;;;;;11.13;3.72;;;;;;;7.06;100.00;99692.00;4975029;28;20031;-83
2022/11/18 03:19:22;;;;;;;11.83;3.93;;;;;;;6.88;100.00;99657.28;4975483;28;20030;-84
2022/11/18 03:22:15;;;;;;;6.90;3.67;;;;;;;6.86;100.00;99656.56;4975006;28;20290;-81
2022/11/18 03:24:54;;;;;;;9.05;3.28;;;;;;;7.07;100.00;99691.06;4974856;28;20046;-83
2022/11/18 03:27:28;;;;;;;7.85;3.60;;;;;;;7.11;100.00;99704.53;4974838;28;20042;-83
2022/11/18 03:30:02;;;;;;;9.13;3.65;;;;;;;7.13;100.00;99712.97;4975153;28;20023;-83
2022/11/18 03:32:30;;;;;;;9.77;3.53;;;;;;;7.14;100.00;99712.03;4975122;28;20509;-83
2022/11/18 03:35:04;;;;;;;11.98;3.58;;;;;;;7.16;100.00;99715.31;4975084;28;20039;-83
2022/11/18 03:37:33;;;;;;;10.23;3.75;;;;;;;6.99;100.00;99688.22;4974488;28;20479;-83
2022/11/18 03:40:16;;;;;;;11.82;3.55;;;;;;;7.20;100.00;99721.91;5023564;28;20497;-83
2022/11/18 03:42:49;;;;;;;10.68;3.80;;;;;;;7.24;100.00;99725.06;5035536;28;20029;-82
2022/11/18 03:45:21;;;;;;;10.27;3.40;;;;;;;7.25;100.00;99724.97;5035606;28;20168;-82
2022/11/18 03:47:50;;;;;;;;;;;;;;;7.28;100.00;99731.66;5035586;28;20103;-81
2022/11/18 03:50:21;;;;;;;13.40;5.07;;;;;;;7.12;100.00;99709.56;5035255;28;20296;-83
2022/11/18 03:52:49;;;;;;;8.98;3.60;;;;;;;7.23;100.00;99726.81;5035284;28;20022;-83
2022/11/18 03:55:22;;;;;;;8.13;3.88;;;;;;;7.28;100.00;99741.94;5035296;28;20405;-83
2022/11/18 03:58:02;;;;;;;5.85;3.17;;;;;;;7.29;100.00;99748.72;5035289;28;20100;-82
2022/11/18 04:00:34;;;;;;;11.13;3.40;;;;;;;6.94;100.00;99689.44;5035160;28;20536;-83
2022/11/18 04:02:59;;;;;;;8.63;3.15;;;;;;;7.28;100.00;99749.66;5035190;28;20037;-83
2022/11/18 04:05:26;;;;;;;8.45;3.15;;;;;;;7.29;100.00;99748.72;5034958;28;20064;-83
2022/11/18 04:07:57;;;;;;;7.72;3.47;;;;;;;7.26;100.00;99754.03;5034346;28;20061;-83
2022/11/18 04:10:35;;;;;;;9.80;4.07;;;;;;;7.17;100.00;99745.19;5035165;28;20109;-83
2022/11/18 04:13:28;;;;;;;7.38;3.15;;;;;;;6.96;100.00;99721.75;5034935;28;20032;-83
2022/11/18 04:15:54;;;;;;;10.20;3.85;;;;;;;6.95;100.00;99720.13;5034902;28;20025;-83
2022/11/18 04:18:19;;;;;;;11.10;3.58;;;;;;;7.10;100.00;99744.78;5035099;28;20029;-83
2022/11/18 04:20:45;;;;;;;9.52;3.20;;;;;;;7.21;100.00;99769.75;5035026;28;20029;-83
2022/11/18 04:23:10;;;;;;;8.20;3.08;;;;;;;7.24;100.00;99773.88;5017207;28;20071;-82
2022/11/18 04:25:36;;;;;;;9.60;3.85;;;;;;;7.16;100.00;99769.22;5034928;28;20034;-83
2022/11/18 04:28:02;;;;;;;10.07;3.20;;;;;;;7.22;100.00;99780.84;5016879;28;20038;-82
2022/11/18 04:30:28;;;;;;;7.47;3.70;;;;;;;6.86;100.00;99728.41;5034711;28;20025;-83
2022/11/18 04:32:53;;;;;;;8.20;3.80;;;;;;;6.93;100.00;99749.38;5034912;28;20022;-83
2022/11/18 04:35:18;;;;;;;8.70;3.60;;;;;;;7.09;100.00;99783.41;5034586;28;20080;-83
2022/11/18 04:37:44;;;;;;;6.20;3.05;;;;;;;7.00;100.00;99787.38;5034564;28;20037;-83
2022/11/18 04:40:09;;;;;;;6.88;2.95;;;;;;;6.92;100.00;99794.75;5034538;28;20433;-81
2022/11/18 04:42:35;;;;;;;8.68;3.35;;;;;;;6.80;100.00;99785.28;5034404;28;20036;-83
2022/11/18 04:45:00;;;;;;;10.23;3.63;;;;;;;6.71;100.00;99780.75;5034246;28;20037;-82
2022/11/18 04:47:26;;;;;;;9.93;3.53;;;;;;;6.61;100.00;99770.25;5034226;28;20049;-84
2022/11/18 04:49:51;;;;;;;9.07;3.83;;;;;;;6.73;100.00;99799.41;5034488;28;20063;-82
2022/11/18 04:52:17;;;;;;;12.23;3.95;;;;;;;6.67;100.00;99803.19;5034483;28;20469;-83
2022/11/18 04:54:42;;;;;;;8.68;3.53;;;;;;;6.62;100.00;99807.78;5034125;28;20033;-83
2022/11/18 04:57:08;;;;;;;9.20;4.45;;;;;;;6.53;100.00;99798.94;5016096;28;20382;-84
2022/11/18 04:59:33;;;;;;;9.30;3.97;;;;;;;6.32;100.00;99778.00;5034144;28;20036;-83
2022/11/18 05:01:59;;;;;;;9.75;3.90;;;;;;;6.30;100.00;99782.41;5034104;28;20039;-82
2022/11/18 05:04:28;;;;;;;9.15;3.70;;;;;;;6.41;100.00;99811.69;5033834;28;20108;-84
2022/11/18 05:06:54;;;;;;;11.05;3.80;;;;;;;6.18;100.00;99793.41;5034022;28;20045;-83
2022/11/18 05:09:20;;;;;;;10.43;4.03;;;;;;;6.29;100.00;99824.38;5033656;28;20029;-84
2022/11/18 05:14:30;;;;;;;10.65;4.00;;;;;;;5.91;100.00;99784.84;5034190;28;20048;-84
2022/11/18 05:16:58;;;;;;;11.95;4.13;;;;;;;6.17;100.00;99834.53;5034195;28;20029;-83
2022/11/18 05:19:24;;;;;;;10.07;4.07;;;;;;;5.91;100.00;99805.34;5032816;28;20096;-83
2022/11/18 05:21:49;;;;;;;12.10;4.18;;;;;;;6.04;100.00;99834.44;5033738;28;20113;-83
2022/11/18 05:24:14;;;;;;;9.77;5.03;;;;;;;5.96;100.00;99845.16;5033347;28;20052;-85
2022/11/18 05:26:40;;;;;;;10.60;4.65;;;;;;;5.93;100.00;99841.94;5033561;28;20037;-82
2022/11/18 05:29:05;;;;;;;8.88;4.65;;;;;;;5.84;100.00;99840.72;5033564;28;20033;-83
2022/11/18 05:31:31;;;;;;;11.90;4.93;;;;;;;5.86;100.00;99850.88;5033808;28;20035;-83
2022/11/18 05:33:59;;;;;;;12.52;5.03;;;;;;;5.56;100.00;99821.03;5033784;28;20032;-83
2022/11/18 05:36:24;;;;;;;11.32;4.60;;;;;;;5.77;100.00;99854.81;5033616;28;20104;-84
2022/11/18 05:38:50;;;;;;;10.80;5.05;;;;;;;5.71;100.00;99855.19;5033437;28;20108;-83
2022/11/18 05:44:00;;;;;;;12.85;5.38;;;;;;;5.32;100.00;99815.59;5033790;28;20088;-84
2022/11/18 05:46:26;;;;;;;11.45;4.90;;;;;;;5.60;100.00;99862.63;5033313;28;20041;-83
2022/11/18 05:48:52;;;;;;;12.57;5.20;;;;;;;5.57;100.00;99865.38;5015444;28;20411;-84
2022/11/18 05:51:17;;;;;;;8.50;5.07;;;;;;;5.57;100.00;99868.75;5033238;28;20030;-84
2022/11/18 05:53:43;;;;;;;13.85;5.30;;;;;;;5.55;100.00;99870.59;5033283;28;20029;-85
2022/11/18 05:56:26;;;;;;;14.48;5.03;;;;;;;5.35;100.00;99843.56;5033133;28;20025;-83
2022/11/18 05:58:51;;;;;;;14.20;5.63;;;;;;;5.40;100.00;99850.97;5015608;28;20048;-82
2022/11/18 06:01:27;;;;;;;12.20;5.68;;;;;;;5.35;100.00;99853.81;5033450;28;20101;-85
2022/11/18 06:03:53;;;;;;;14.30;5.97;;;;;;;5.44;100.00;99881.44;5016330;28;20440;-84
2022/11/18 06:06:21;;;;;;;10.95;5.68;;;;;;;5.46;100.00;99884.75;5033238;28;20025;-84
2022/11/18 06:08:54;;;;;;;12.20;5.93;;;;;;;5.45;100.00;99889.97;5033041;28;20029;-84
2022/11/18 06:11:20;;;;;;;12.90;6.13;;;;;;;5.43;100.00;99892.59;5032962;28;20033;-83
2022/11/18 06:14:02;;;;;;;14.65;6.28;;;;;;;5.48;100.00;99892.34;5033208;28;20030;-83
2022/11/18 06:16:31;;;;;;;14.43;6.72;;;;;;;5.12;100.00;99839.75;5033077;28;20083;-83
2022/11/18 06:18:57;;;;;;;13.52;5.93;;;;;;;5.47;100.00;99904.31;5032839;28;20025;-83
2022/11/18 06:21:23;;;;;;;12.50;5.80;;;;;;;5.47;100.00;99916.28;5032770;28;20426;-82
2022/11/18 06:23:48;;;;;;;10.85;5.60;;;;;;;5.44;100.00;99916.47;5032832;28;20026;-83
2022/11/18 06:26:15;;;;;;;12.85;6.07;;;;;;;5.41;100.00;99914.09;5032976;28;20565;-82
2022/11/18 06:28:45;;;;;;;13.88;6.18;;;;;;;5.27;100.00;99899.50;5033063;28;20528;-83
2022/11/18 06:31:11;;;;;;;16.13;7.00;;;;;;;5.38;100.00;99921.94;5035030;28;20030;-83
2022/11/18 06:33:36;;;;;;;14.70;6.00;;;;;;;5.27;100.00;99908.91;5036893;28;20120;-83
2022/11/18 06:36:01;;;;;;;12.68;6.25;;;;;;;4.91;100.00;99863.97;5036892;28;20030;-84
2022/11/18 06:38:29;;;;;;;15.80;6.47;;;;;;;5.23;100.00;99917.69;5036733;28;20039;-84
2022/11/18 06:40:59;;;;;;;12.90;6.45;;;;;;;4.88;100.00;99859.84;5036830;28;20034;-84
2022/11/18 06:43:40;;;;;;;15.23;7.07;;;;;;;5.32;100.00;99935.09;5036483;28;20022;-84
2022/11/18 06:48:56;;;;;;;13.35;6.57;;;;;;;5.30;100.00;99942.00;5036305;28;20111;-84
2022/11/18 06:51:22;;;;;;;15.30;6.43;;;;;;;5.23;100.00;99933.03;5036836;28;20477;-83
2022/11/18 06:53:47;;;;;;;14.15;6.57;;;;;;;5.20;100.00;99939.13;5041148;23;20136;-83
2022/11/18 06:56:15;;;;;;;18.38;7.38;;;;;;;5.14;100.00;99940.31;5036228;28;20108;-82
2022/11/18 06:58:40;;;;;;;15.45;6.93;;;;;;;5.08;100.00;99927.00;5036499;28;20025;-82
2022/11/18 07:01:17;;;;;;;13.90;7.18;;;;;;;5.31;100.00;99967.53;5036224;28;20036;-81
2022/11/18 07:03:44;;;;;;;12.88;7.03;;;;;;;5.34;100.00;99972.47;5036395;28;20426;-81
2022/11/18 07:06:11;;;;;;;15.15;7.80;;;;;;;5.01;100.00;99918.00;5036501;28;20029;-82
2022/11/18 07:08:37;;;;;;;14.63;7.22;;;;;;;5.37;100.00;99977.44;5036359;28;20022;-83
2022/11/18 07:11:06;;;;;;;14.52;6.90;;;;;;;5.37;100.00;99981.72;5036171;28;20496;-81
2022/11/18 07:13:32;;;;;;;14.82;7.55;;;;;;;5.31;100.00;99962.41;5036061;28;20371;-82
2022/11/18 07:16:14;;;;;;;15.52;8.07;;;;;;;5.33;100.00;99968.28;5035773;28;20492;-83
2022/11/18 07:18:41;;;;;;;18.05;7.50;;;;;;;5.01;100.00;99918.81;5042292;23;20072;-84
2022/11/18 07:21:20;;;;;;;16.88;7.22;;;;;;;5.04;100.00;99918.69;5035953;28;20127;-82
2022/11/18 07:24:10;;;;;;;14.45;7.63;;;;;;;5.47;100.00;99975.19;5036063;28;20029;-81
2022/11/18 07:26:37;;;;;;;16.48;7.88;;;;;;;5.58;100.00;100000.19;5017878;28;20061;-81
2022/11/18 07:29:02;;;;;;;16.33;8.25;;;;;;;4.99;100.00;99909.59;5035984;28;20353;-81
2022/11/18 07:31:38;;;;;;;22.23;7.72;;;;;;;5.40;100.00;99972.13;5036095;28;20025;-83
2022/11/18 07:34:15;;;;;;;14.65;7.80;;;;;;;4.94;100.00;99899.63;5018199;28;20029;-83
2022/11/18 07:36:42;;;;;;;17.10;7.95;;;;;;;5.66;100.00;100016.78;5042669;23;20046;-83
2022/11/18 07:39:13;;;;;;;14.85;7.55;;;;;;;5.70;100.00;100020.84;5035552;28;20076;-83
2022/11/18 07:41:38;;;;;;;14.85;7.85;;;;;;;5.71;100.00;100022.50;5034942;28;20052;-81
2022/11/18 07:44:05;;;;;;;15.00;7.63;;;;;;;5.63;100.00;99996.47;5034753;28;20021;-83
2022/11/18 07:46:37;;;;;;;15.07;7.05;;;;;;;5.77;100.00;100026.44;5035378;28;20437;-82
2022/11/18 07:49:34;;;;;;;15.00;7.00;;;;;;;5.79;100.00;100022.03;5018944;28;20024;-82
2022/11/18 07:52:02;;;;;;;14.77;7.82;;;;;;;4.45;100.00;99812.78;5015072;28;20037;-79
2022/11/18 07:54:31;;;;;;;16.05;7.80;;;;;;;5.60;100.00;99999.19;5015607;28;20026;-82
2022/11/18 07:57:04;;;;;;;15.32;7.20;;;;;;;4.58;100.00;99835.94;5015714;28;20056;-83
2022/11/18 07:59:30;;;;;;;16.73;7.13;;;;;;;4.58;100.00;99834.22;5015416;28;20108;-83
2022/11/18 08:01:56;;;;;;;14.10;7.35;;;;;;;5.06;100.00;99919.41;5015339;28;20120;-80
2022/11/18 08:04:25;;;;;;;14.05;7.32;;;;;;;4.94;100.00;99901.38;5015223;28;20482;-82
2022/11/18 08:06:50;;;;;;;14.45;7.32;;;;;;;5.66;100.00;100005.72;5051082;23;20060;-81
2022/11/18 08:09:25;;;;;;;11.98;7.60;;;;;;;5.17;100.00;99926.50;5017746;28;20018;-82
2022/11/18 08:12:04;;;;;;;13.65;7.45;;;;;;;4.71;100.00;99839.47;5035055;28;20021;-81
2022/11/18 08:14:36;;;;;;;14.07;7.28;;;;;;;4.81;100.00;99853.41;5034931;28;20028;-83
2022/11/18 08:17:19;;;;;;;15.68;7.65;;;;;;;5.61;100.00;99974.44;5034569;28;20079;-81
2022/11/18 08:19:53;;;;;;;12.98;6.78;;;;;;;5.01;100.00;99874.50;5034821;28;20421;-81
2022/11/18 08:22:19;;;;;;;16.40;6.93;;;;;;;6.19;100.00;100060.84;5034959;28;20096;-82
2022/11/18 08:24:56;;;;;;;17.63;7.30;;;;;;;5.73;100.00;99991.66;5034861;28;20540;-86
2022/11/18 08:27:42;;;;;;;14.48;6.53;;;;;;;5.14;100.00;99898.53;5034615;28;20092;-84
2022/11/18 08:30:08;;;;;;;16.38;7.05;;;;;;;4.98;100.00;99864.44;5034056;28;20049;-83
2022/11/18 08:32:34;;;;;;;13.85;6.43;;;;;;;5.87;100.00;100009.63;5034828;28;20028;-83
2022/11/18 08:35:14;;;;;;;14.85;6.70;;;;;;;6.31;100.00;100085.78;5034646;28;20029;-82
2022/11/18 08:37:58;;;;;;;15.60;6.60;;;;;;;5.15;100.00;99890.75;5041662;23;20060;-84
2022/11/18 08:40:32;;;;;;;13.23;6.60;;;;;;;6.19;100.00;100061.66;5034671;28;20029;-82
2022/11/18 08:42:58;;;;;;;13.05;6.28;;;;;;;6.41;100.00;100084.34;5034739;28;20072;-83
2022/11/18 08:45:26;;;;;;;12.00;6.78;;;;;;;5.90;100.00;100009.50;5033833;28;20033;-81
2022/11/18 08:47:55;;;;;;;20.75;7.20;;;;;;;5.16;100.00;99882.16;5087249;23;20063;-83
2022/11/18 08:50:26;;;;;;;14.02;6.20;;;;;;;6.02;100.00;100026.75;5034334;28;20025;-84
2022/11/18 08:52:51;;;;;;;15.25;8.02;;;;;;;5.28;100.00;99893.47;5033161;28;20113;-81
2022/11/18 08:55:16;;;;;;;13.35;6.88;;;;;;;5.84;100.00;99976.50;5034124;28;20124;-82
2022/11/18 08:57:46;;;;;;;14.55;6.60;;;;;;;6.65;100.00;100094.09;5034340;28;20021;-81
2022/11/18 09:00:12;;;;;;;13.07;6.43;;;;;;;6.72;100.00;100098.78;5034024;28;20469;-82
2022/11/18 09:02:37;;;;;;;12.13;6.47;;;;;;;6.76;100.00;100101.97;5034094;28;20029;-81
2022/11/18 09:05:03;;;;;;;14.15;6.10;;;;;;;6.77;100.00;100093.38;5034020;28;20038;-83
2022/11/18 09:07:28;;;;;;;12.75;6.25;;;;;;;6.79;100.00;100105.22;5033772;28;20034;-82
2022/11/18 09:09:53;;;;;;;10.88;6.05;;;;;;;6.68;100.00;100086.22;5034158;28;20025;-82
2022/11/18 09:12:19;;;;;;;13.25;6.05;;;;;;;6.80;100.00;100109.44;5034233;28;20033;-82
2022/11/18 09:14:44;;;;;;;15.30;5.82;;;;;;;6.78;100.00;100107.84;5033967;28;20436;-81
2022/11/18 09:17:10;;;;;;;13.43;6.22;;;;;;;6.68;100.00;100094.72;5033777;28;20021;-81
2022/11/18 09:19:36;;;;;;;12.60;5.68;;;;;;;6.63;100.00;100085.66;5033786;28;20033;-81
2022/11/18 09:22:01;;;;;;;13.45;6.28;;;;;;;6.81;100.00;100115.38;5033437;28;20029;-81
2022/11/18 09:24:27;;;;;;;12.93;6.55;;;;;;;6.85;100.00;100121.97;5033666;28;20028;-83
2022/11/18 09:26:52;;;;;;;13.73;6.28;;;;;;;6.80;100.00;100108.59;5033675;28;20056;-83
2022/11/18 09:29:18;;;;;;;14.82;6.90;;;;;;;6.99;100.00;100128.88;5033576;28;20028;-82
2022/11/18 09:31:44;;;;;;;18.58;6.47;;;;;;;6.95;100.00;100110.25;5015625;28;20036;-81
2022/11/18 09:34:09;;;;;;;16.73;6.38;;;;;;;7.14;100.00;100128.78;5033511;28;20542;-82
2022/11/18 09:36:35;;;;;;;19.13;7.35;;;;;;;7.17;100.00;100122.63;5015734;28;20029;-82
2022/11/18 09:39:00;;;;;;;15.27;6.45;;;;;;;7.00;100.00;100090.28;5033353;28;20030;-82
2022/11/18 09:41:45;;;;;;;12.70;6.35;;;;;;;7.38;100.00;100143.66;5033269;28;20113;-84
2022/11/18 09:44:54;;;;;;;13.10;6.97;;;;;;;7.44;100.00;100140.69;5033291;28;20061;-81
2022/11/18 09:47:35;;;;;;;11.73;5.97;;;;;;;7.44;100.00;100156.09;5033237;28;20046;-82
2022/11/18 09:50:05;;;;;;;15.73;7.20;;;;;;;7.43;100.00;100157.84;5033302;28;20025;-82
2022/11/18 09:52:46;;;;;;;11.68;5.90;;;;;;;7.29;100.00;100137.31;5033641;28;20032;-82
2022/11/18 09:55:23;;;;;;;17.50;6.20;;;;;;;6.26;100.00;99965.53;5033308;28;20026;-81
2022/11/18 09:57:51;;;;;;;10.40;6.32;;;;;;;7.57;100.00;100169.00;5033169;28;20030;-81
2022/11/18 10:00:22;;;;;;;12.75;5.72;;;;;;;7.05;100.00;100077.16;5033180;28;20424;-81
2022/11/18 10:03:03;;;;;;;10.35;5.63;;;;;;;7.15;100.00;100098.78;5033050;28;20056;-80
2022/11/18 10:05:57;;;;;;;11.27;5.40;;;;;;;7.81;100.00;100189.84;5032186;28;20041;-79
2022/11/18 10:08:45;;;;;;;15.13;6.15;;;;;;;8.00;100.00;100186.03;5032826;28;20022;-78
2022/11/18 10:11:21;;;;;;;12.13;6.05;;;;;;;7.55;100.00;100083.50;5032684;28;20057;-80
2022/11/18 10:14:16;;;;;;;15.48;5.20;;;;;;;7.85;100.00;100091.03;5032971;28;20523;-81
2022/11/18 10:17:23;;;;;;;11.65;5.20;;;;;;;8.63;100.00;100189.75;5032408;28;20496;-80
2022/11/18 10:20:08;;;;;;;13.32;5.53;;;;;;;8.82;100.00;100192.78;5033013;28;20025;-81
2022/11/18 10:22:52;;;;;;;11.13;5.32;;;;;;;8.34;100.00;100089.56;5015160;28;20083;-81
2022/11/18 10:25:18;;;;;;;8.50;4.63;;;;;;;7.91;100.00;99996.38;5032671;28;20536;-80
2022/11/18 10:27:46;;;;;;;10.63;4.50;;;;;;;8.42;100.00;100058.19;5032763;28;20022;-80
2022/11/18 10:30:23;;;;;;;13.15;5.00;;;;;;;9.35;100.00;100197.88;5032755;28;20025;-78
2022/11/18 10:33:14;;;;;;;14.85;5.05;;;;;;;8.90;100.00;100121.00;5032590;28;20032;-77
2022/11/18 10:35:39;;;;;;;9.77;4.60;;;;;;;9.35;100.00;100187.56;5032545;28;20057;-75
2022/11/18 10:38:14;;;;;;;9.70;4.57;;;;;;;9.29;100.00;100172.50;5032660;28;20310;-80
2022/11/18 10:41:03;;;;;;;8.13;3.95;;;;;;;9.52;100.00;100212.16;5015041;28;20032;-79
2022/11/18 10:43:44;;;;;;;10.38;4.75;;;;;;;9.58;100.00;100211.75;5032182;28;20044;-79
2022/11/18 10:46:32;;;;;;;12.70;4.57;;;;;;;9.57;100.00;100217.84;5032324;28;20029;-79
2022/11/18 10:49:10;;;;;;;11.35;3.90;;;;;;;9.55;100.00;100215.38;5032647;28;20501;-79
2022/11/18 10:52:10;;;;;;;11.27;4.18;;;;;;;9.59;100.00;100221.13;5032543;28;20109;-79
2022/11/18 10:54:36;;;;;;;9.13;4.20;;;;;;;9.63;100.00;100219.97;5032524;28;20044;-80
2022/11/18 10:57:34;;;;;;;7.50;3.92;;;;;;;9.65;99.34;100213.00;5032625;28;20061;-78
2022/11/18 11:00:04;;;;;;;10.35;4.03;;;;;;;8.98;99.67;100104.22;4971405;28;20637;-79
2022/11/18 11:02:38;;;;;;;12.07;3.97;;;;;;;9.47;99.19;100184.97;4971354;28;20070;-79
2022/11/18 11:05:18;;;;;;;11.75;4.05;;;;;;;9.55;99.38;100201.66;4971530;28;20046;-79
2022/11/18 11:07:59;;;;;;;9.20;3.40;;;;;;;9.24;98.96;100164.25;4971634;28;20173;-79
2022/11/18 11:10:25;;;;;;;;;;;;;;;9.61;99.62;100227.81;4972267;28;20050;-79
2022/11/18 11:12:57;;;;;;;9.50;3.65;;;;;;;9.45;98.75;100233.22;4971664;28;19918;-80
2022/11/18 11:15:38;;;;;;;12.07;4.05;;;;;;;9.38;100.00;100231.16;4955232;28;20124;-80
2022/11/18 11:20:54;;;;;;;10.73;3.35;;;;;;;8.87;100.00;100185.59;4975360;28;20041;-79
2022/11/18 11:23:23;;;;;;;10.85;4.13;;;;;;;9.06;100.00;100233.31;4974891;28;20410;-79
2022/11/18 11:26:13;;;;;;;8.80;4.10;;;;;;;9.01;100.00;100236.16;4974937;28;20390;-80
2022/11/18 11:29:02;;;;;;;9.63;3.75;;;;;;;8.78;100.00;100203.41;4974936;28;20110;-79
2022/11/18 11:31:27;;;;;;;10.52;4.35;;;;;;;9.05;100.00;100241.97;4957695;28;20119;-79
2022/11/18 11:34:06;;;;;;;11.57;3.80;;;;;;;9.12;100.00;100238.84;4954613;28;20486;-77
2022/11/18 11:36:40;;;;;;;9.88;4.13;;;;;;;9.22;100.00;100246.81;4989509;28;20076;-78
2022/11/18 11:39:39;;;;;;;9.20;4.00;;;;;;;9.31;100.00;100251.34;5015992;28;20032;-78
2022/11/18 11:42:11;;;;;;;11.35;4.32;;;;;;;9.32;100.00;100234.13;5015850;28;20030;-77
2022/11/18 11:45:06;;;;;;;13.95;4.30;;;;;;;9.44;100.00;100247.03;5015886;28;20034;-76
2022/11/18 11:47:46;;;;;;;13.13;5.40;;;;;;;9.53;100.00;100255.06;5015118;28;20057;-79
2022/11/18 11:50:12;;;;;;;12.75;4.47;;;;;;;9.59;100.00;100244.34;5015518;28;20033;-79
2022/11/18 11:52:48;;;;;;;10.32;4.60;;;;;;;9.47;100.00;100226.19;4997953;28;20532;-77
2022/11/18 11:55:21;;;;;;;10.55;4.53;;;;;;;9.61;100.00;100256.19;5015558;28;20500;-79
2022/11/18 11:58:10;;;;;;;13.52;5.35;;;;;;;9.42;100.00;100211.97;5015310;28;20041;-78
2022/11/18 12:00:58;;;;;;;12.40;5.22;;;;;;;9.72;100.00;100258.03;5015359;28;20030;-79